createdAt,value
2019-05-02T00:03:26.190Z,92.10
2019-05-02T00:08:33.255Z,92.10
2019-05-02T00:13:40.245Z,91.90
2019-05-02T00:18:46.002Z,91.90
2019-05-02T00:23:51.978Z,91.90
2019-05-02T00:28:57.990Z,91.80
2019-05-02T00:34:05.258Z,91.80
2019-05-02T00:39:13.805Z,91.90
2019-05-02T00:44:18.581Z,91.90
2019-05-02T00:49:24.566Z,91.90
2019-05-02T00:54:30.635Z,92.10
2019-05-02T00:59:37.783Z,92.10
2019-05-02T01:04:45.801Z,92.20
2019-05-02T01:09:51.815Z,92.20
2019-05-02T01:14:57.880Z,92.30
2019-05-02T01:20:03.857Z,92.30
2019-05-02T01:25:14.992Z,92.40
2019-05-02T01:30:46.022Z,92.50
2019-05-02T01:36:06.363Z,92.70
2019-05-02T01:41:11.074Z,92.80
2019-05-02T01:46:21.713Z,93.00
2019-05-02T01:51:24.561Z,93.00
2019-05-02T01:56:33.145Z,93.10
2019-05-02T02:01:38.409Z,93.20
2019-05-02T02:06:45.203Z,93.30
2019-05-02T02:11:51.352Z,93.50
2019-05-02T02:16:57.200Z,94.00
2019-05-02T02:22:39.154Z,93.80
2019-05-02T02:27:44.704Z,93.90
2019-05-02T02:32:50.550Z,94.40
2019-05-02T02:37:57.922Z,94.20
2019-05-02T02:43:12.857Z,94.10
2019-05-02T02:48:11.233Z,94.30
2019-05-02T02:53:24.170Z,94.40
2019-05-02T02:58:26.575Z,94.80
2019-05-02T03:03:35.194Z,95.00
2019-05-02T03:08:46.286Z,95.10
2019-05-02T03:14:05.676Z,95.30
2019-05-02T03:19:01.633Z,95.10
2019-05-02T03:24:07.534Z,95.20
2019-05-02T03:29:13.581Z,95.10
2019-05-02T03:34:19.575Z,95.00
2019-05-02T03:39:25.855Z,95.30
2019-05-02T03:44:32.085Z,95.50
2019-05-02T03:49:41.064Z,95.40
2019-05-02T03:54:50.065Z,95.40
2019-05-02T03:59:53.595Z,95.50
2019-05-02T04:05:00.389Z,95.50
2019-05-02T04:10:07.550Z,95.50
2019-05-02T04:15:13.777Z,95.40
2019-05-02T04:25:27.895Z,95.60
2019-05-02T04:30:32.674Z,96.10
2019-05-02T04:35:38.738Z,96.30
2019-05-02T04:40:46.639Z,96.50
2019-05-02T04:45:56.347Z,96.90
2019-05-02T04:51:10.044Z,97.00
2019-05-02T04:56:10.550Z,97.00
2019-05-02T05:01:16.882Z,97.00
2019-05-02T05:06:22.725Z,97.10
2019-05-02T05:11:28.720Z,97.00
2019-05-02T05:16:34.866Z,96.90
2019-05-02T05:21:40.865Z,96.90
2019-05-02T05:26:49.653Z,96.80
2019-05-02T05:32:05.242Z,96.70
2019-05-02T05:37:03.786Z,96.70
2019-05-02T05:42:11.938Z,96.70
2019-05-02T05:47:21.227Z,96.70
2019-05-02T05:52:27.158Z,96.80
2019-05-02T05:57:33.523Z,96.90
2019-05-02T06:02:53.263Z,96.80
2019-05-02T06:07:47.475Z,96.80
2019-05-02T06:12:55.499Z,96.90
2019-05-02T06:18:04.838Z,96.90
2019-05-02T06:23:08.948Z,97.10
2019-05-02T06:28:15.031Z,96.60
2019-05-02T06:33:21.087Z,96.40
2019-05-02T06:38:27.724Z,96.50
2019-05-02T06:43:33.887Z,96.40
2019-05-02T06:48:40.115Z,96.20
2019-05-02T06:53:47.117Z,95.90
2019-05-02T06:58:53.836Z,95.70
2019-05-02T07:03:59.846Z,95.20
2019-05-02T07:09:07.248Z,94.60
2019-05-02T07:14:14.045Z,94.20
2019-05-02T07:19:42.140Z,93.90
2019-05-02T07:24:48.065Z,93.50
2019-05-02T07:29:57.700Z,93.30
2019-05-02T07:35:03.206Z,93.20
2019-05-02T07:40:12.067Z,92.90
2019-05-02T07:45:17.809Z,92.90
2019-05-02T07:50:23.910Z,92.40
2019-05-02T07:55:30.706Z,91.80
2019-05-02T08:00:38.503Z,90.90
2019-05-02T08:05:44.719Z,90.60
2019-05-02T08:10:53.860Z,90.20
2019-05-02T08:15:58.358Z,89.30
2019-05-02T08:21:04.458Z,88.20
2019-05-02T08:26:10.510Z,86.00
2019-05-02T08:31:18.868Z,85.40
2019-05-02T08:36:23.945Z,83.30
2019-05-02T08:41:29.968Z,82.40
2019-05-02T08:46:35.995Z,82.20
2019-05-02T08:51:41.832Z,81.40
2019-05-02T08:56:47.827Z,80.40
2019-05-02T09:01:53.730Z,80.60
2019-05-02T09:07:00.787Z,80.60
2019-05-02T09:12:12.310Z,80.10
2019-05-02T09:17:16.656Z,79.90
2019-05-02T09:22:22.280Z,79.10
2019-05-02T09:27:28.167Z,79.40
2019-05-02T09:32:37.087Z,79.50
2019-05-02T09:37:52.247Z,79.50
2019-05-02T09:43:01.960Z,78.00
2019-05-02T09:48:08.108Z,76.50
2019-05-02T09:53:20.782Z,75.50
2019-05-02T09:58:23.891Z,74.50
2019-05-02T10:03:29.367Z,73.30
2019-05-02T10:08:38.218Z,73.40
2019-05-02T10:13:42.853Z,73.70
2019-05-02T10:18:48.921Z,74.90
2019-05-02T10:23:59.399Z,75.50
2019-05-02T10:29:02.678Z,74.80
2019-05-02T10:34:16.275Z,72.90
2019-05-02T10:39:16.275Z,72.20
2019-05-02T10:44:22.711Z,71.40
2019-05-02T10:49:42.489Z,72.70
2019-05-02T10:54:48.109Z,72.40
2019-05-02T10:59:56.129Z,72.50
2019-05-02T11:05:06.449Z,72.40
2019-05-02T11:10:12.900Z,72.70
2019-05-02T11:15:44.301Z,72.80
2019-05-02T11:25:45.474Z,72.90
2019-05-02T11:30:52.432Z,71.30
2019-05-02T11:35:58.677Z,72.30
2019-05-02T11:41:04.713Z,72.90
2019-05-02T11:46:12.115Z,72.00
2019-05-02T11:51:18.203Z,72.60
2019-05-02T11:56:24.076Z,73.00
2019-05-02T12:01:37.048Z,73.00
2019-05-02T12:06:37.652Z,73.00
2019-05-02T12:11:47.516Z,73.10
2019-05-02T12:16:52.673Z,73.30
2019-05-02T12:21:58.970Z,73.70
2019-05-02T12:27:05.061Z,73.80
2019-05-02T12:32:12.056Z,74.30
2019-05-02T12:37:18.100Z,74.50
2019-05-02T12:42:24.885Z,74.30
2019-05-02T12:47:33.861Z,73.50
2019-05-02T12:52:39.856Z,72.50
2019-05-02T12:57:45.933Z,71.70
2019-05-02T13:02:58.479Z,70.30
2019-05-02T13:08:04.417Z,69.80
2019-05-02T13:13:12.281Z,69.10
2019-05-02T13:18:22.652Z,69.70
2019-05-02T13:23:48.121Z,69.50
2019-05-02T13:28:54.329Z,69.70
2019-05-02T13:34:11.701Z,69.60
2019-05-02T13:39:22.819Z,70.10
2019-05-02T13:44:32.566Z,70.20
2019-05-02T13:49:51.435Z,70.70
2019-05-02T13:54:46.533Z,70.90
2019-05-02T13:59:52.664Z,69.50
2019-05-02T14:04:58.881Z,68.30
2019-05-02T14:10:11.965Z,67.90
2019-05-02T14:15:22.030Z,69.00
2019-05-02T14:20:28.076Z,69.50
2019-05-02T14:25:34.244Z,71.10
2019-05-02T14:30:45.564Z,69.50
2019-05-02T14:35:48.478Z,68.90
2019-05-02T14:41:12.461Z,67.70
2019-05-02T14:46:19.314Z,67.60
2019-05-02T14:51:27.625Z,67.90
2019-05-02T14:56:48.636Z,68.50
2019-05-02T15:02:05.789Z,68.60
2019-05-02T15:07:05.366Z,68.80
2019-05-02T15:12:15.767Z,68.70
2019-05-02T15:17:19.187Z,67.60
2019-05-02T15:22:27.593Z,67.40
2019-05-02T15:27:40.255Z,67.70
2019-05-02T15:32:52.988Z,68.30
2019-05-02T15:38:02.526Z,69.00
2019-05-02T15:43:09.599Z,69.30
2019-05-02T15:48:21.531Z,69.40
2019-05-02T15:53:39.084Z,70.00
2019-05-02T15:58:43.934Z,69.90
2019-05-02T16:03:52.251Z,69.80
2019-05-02T16:08:58.306Z,69.10
2019-05-02T16:14:04.398Z,69.40
2019-05-02T16:19:14.951Z,70.20
2019-05-02T16:24:23.030Z,71.80
2019-05-02T16:29:29.394Z,73.40
2019-05-02T16:34:54.239Z,75.20
2019-05-02T16:39:57.915Z,81.40
2019-05-02T16:45:03.882Z,91.30
2019-05-02T16:50:12.244Z,91.50
2019-05-02T16:55:21.253Z,92.10
2019-05-02T17:00:26.826Z,92.90
2019-05-02T17:05:33.943Z,93.10
2019-05-02T17:10:47.236Z,92.10
2019-05-02T17:15:52.249Z,92.50
2019-05-02T17:20:58.260Z,92.50
2019-05-02T17:26:04.406Z,93.00
2019-05-02T17:31:18.815Z,93.40
2019-05-02T17:36:21.595Z,94.20
2019-05-02T17:41:25.740Z,94.30
2019-05-02T17:46:31.826Z,94.30
2019-05-02T17:52:05.044Z,95.00
2019-05-02T17:57:03.198Z,95.20
2019-05-02T18:02:12.305Z,95.30
2019-05-02T18:07:18.173Z,95.00
2019-05-02T18:12:24.425Z,95.20
2019-05-02T18:17:31.789Z,95.40
2019-05-02T18:22:40.019Z,95.60
2019-05-02T18:27:45.667Z,95.90
2019-05-02T18:32:52.854Z,96.00
2019-05-02T18:37:59.098Z,95.90
2019-05-02T18:43:05.538Z,96.20
2019-05-02T18:48:13.489Z,96.30
2019-05-02T18:53:24.364Z,96.30
2019-05-02T18:58:27.683Z,96.70
2019-05-02T19:03:33.681Z,96.60
2019-05-02T19:08:47.589Z,96.60
2019-05-02T19:13:53.220Z,96.60
2019-05-02T19:19:01.733Z,97.00
2019-05-02T19:24:07.843Z,99.40
2019-05-02T19:29:31.868Z,98.50
2019-05-02T19:34:41.786Z,98.30
2019-05-02T19:39:48.878Z,98.10
2019-05-02T19:44:55.208Z,98.30
2019-05-02T19:50:03.041Z,98.10
2019-05-02T19:55:14.148Z,98.20
2019-05-02T20:00:17.248Z,98.10
2019-05-02T20:05:25.528Z,98.20
2019-05-02T20:10:32.194Z,98.40
2019-05-02T20:15:42.224Z,98.40
2019-05-02T20:21:25.964Z,98.40
2019-05-02T20:26:25.846Z,98.30
2019-05-02T20:31:32.259Z,98.30
2019-05-02T20:36:38.214Z,98.30
2019-05-02T20:41:44.276Z,98.40
2019-05-02T20:46:51.648Z,98.40
2019-05-02T20:51:57.714Z,99.00
2019-05-02T20:57:03.608Z,98.80
2019-05-02T21:02:09.558Z,98.60
2019-05-02T21:07:37.500Z,98.40
2019-05-02T21:12:43.212Z,99.40
2019-05-02T21:17:49.204Z,98.50
2019-05-02T21:22:55.194Z,98.60
2019-05-02T21:28:02.815Z,98.50
2019-05-02T21:33:31.925Z,98.60
2019-05-02T21:38:38.215Z,98.60
2019-05-02T21:43:44.317Z,98.50
2019-05-02T21:48:52.489Z,98.50
2019-05-02T21:54:26.050Z,98.30
2019-05-02T21:59:32.096Z,98.40
2019-05-02T22:04:38.182Z,98.60
2019-05-02T22:09:44.046Z,98.90
2019-05-02T22:14:49.876Z,98.90
2019-05-02T22:19:55.729Z,99.00
2019-05-02T22:25:02.224Z,99.30
2019-05-02T22:30:08.686Z,99.00
2019-05-02T22:35:14.737Z,98.90
2019-05-02T22:40:21.825Z,99.00
2019-05-02T22:45:28.026Z,99.00
2019-05-02T22:50:34.200Z,99.30
2019-05-02T22:55:40.247Z,99.50
2019-05-02T23:00:46.333Z,99.60
2019-05-02T23:05:52.705Z,99.90
2019-05-02T23:10:58.706Z,99.90
2019-05-02T23:16:04.678Z,99.90
2019-05-02T23:21:12.680Z,99.90
2019-05-02T23:26:34.238Z,99.90
2019-05-02T23:31:42.220Z,99.90
2019-05-02T23:36:48.026Z,99.90
2019-05-02T23:41:53.915Z,99.90
2019-05-02T23:46:59.907Z,99.90
2019-05-02T23:52:05.841Z,99.90
2019-05-02T23:57:12.241Z,99.90
